Tamworth, United Kingdom
Current Conditions -  °F | °C
As of 11:20 PM on Friday 19 Dec 2014 (Local Time) from EGBB Reporting Station
Clear Clear  
Wind Chill: 37°   Ceiling: Unl
Heat Index: 43°   Visibility: 6mi
Dew Point: 36°   Wind: 12mph
Humidity: 76%   Direction: 250°WSW
Pressure: 30.12"   Gusts: NA
Location:  52.63°N, 1.69°W
Report Text: EGBB 192320Z 25010KT CAVOK 06/02 Q1020
Loading
Personal Weather Stations






























Interactive Weather Map New forecast layout! Learn more

10-Day Weather Forecast

Advertisements
Track Severe Weather on mobile